sensor_id;sensor_type;location;lat;lon;timestamp;pressure;altitude;pressure_sealevel;temperature;humidity
56600;BME280;51832;48.152;11.530;2023-10-08T00:02:11;96274.13;;;20.28;32.39
56600;BME280;51832;48.152;11.530;2023-10-08T00:07:14;96266.75;;;20.60;32.16
56600;BME280;51832;48.152;11.530;2023-10-08T00:12:14;96252.72;;;20.17;32.99
56600;BME280;51832;48.152;11.530;2023-10-08T00:17:16;96243.75;;;20.49;32.68
56600;BME280;51832;48.152;11.530;2023-10-08T00:22:19;96239.94;;;20.30;33.23
56600;BME280;51832;48.152;11.530;2023-10-08T00:27:20;96252.84;;;20.58;32.77
56600;BME280;51832;48.152;11.530;2023-10-08T00:32:22;96225.03;;;20.64;32.75
56600;BME280;51832;48.152;11.530;2023-10-08T00:37:22;96238.94;;;20.46;32.97
56600;BME280;51832;48.152;11.530;2023-10-08T00:42:27;96214.88;;;20.71;32.54
56600;BME280;51832;48.152;11.530;2023-10-08T00:47:28;96223.97;;;20.55;32.83
56600;BME280;51832;48.152;11.530;2023-10-08T00:52:29;96234.94;;;20.84;32.32
56600;BME280;51832;48.152;11.530;2023-10-08T00:57:38;96208.47;;;21.13;31.72
56600;BME280;51832;48.152;11.530;2023-10-08T01:02:47;96213.00;;;20.92;31.97
56600;BME280;51832;48.152;11.530;2023-10-08T01:08:00;96217.28;;;20.98;32.00
56600;BME280;51832;48.152;11.530;2023-10-08T01:13:06;96209.81;;;21.00;31.78
56600;BME280;51832;48.152;11.530;2023-10-08T01:18:13;96215.13;;;21.05;31.61
56600;BME280;51832;48.152;11.530;2023-10-08T01:23:19;96221.31;;;21.11;31.38
56600;BME280;51832;48.152;11.530;2023-10-08T01:28:27;96215.97;;;20.96;31.09
56600;BME280;51832;48.152;11.530;2023-10-08T01:33:29;96213.00;;;20.97;30.41
56600;BME280;51832;48.152;11.530;2023-10-08T01:38:32;96205.78;;;21.23;29.70
56600;BME280;51832;48.152;11.530;2023-10-08T01:43:35;96205.75;;;21.33;29.49
56600;BME280;51832;48.152;11.530;2023-10-08T01:48:35;96201.78;;;21.20;29.55
56600;BME280;51832;48.152;11.530;2023-10-08T01:53:38;96206.06;;;21.11;29.59
56600;BME280;51832;48.152;11.530;2023-10-08T01:58:38;96200.16;;;21.09;29.84
56600;BME280;51832;48.152;11.530;2023-10-08T02:03:39;96192.94;;;21.20;29.69
56600;BME280;51832;48.152;11.530;2023-10-08T02:08:42;96197.75;;;21.23;29.80
56600;BME280;51832;48.152;11.530;2023-10-08T02:13:42;96190.81;;;21.22;30.08
56600;BME280;51832;48.152;11.530;2023-10-08T02:18:42;96189.47;;;21.14;30.36
56600;BME280;51832;48.152;11.530;2023-10-08T02:23:44;96186.25;;;21.07;30.50
56600;BME280;51832;48.152;11.530;2023-10-08T02:28:45;96183.84;;;21.06;30.77
56600;BME280;51832;48.152;11.530;2023-10-08T02:33:45;96189.19;;;21.16;30.59
56600;BME280;51832;48.152;11.530;2023-10-08T02:38:45;96185.72;;;21.05;30.70
56600;BME280;51832;48.152;11.530;2023-10-08T02:43:46;96185.97;;;21.14;30.84
56600;BME280;51832;48.152;11.530;2023-10-08T02:48:48;96173.13;;;21.11;30.68
56600;BME280;51832;48.152;11.530;2023-10-08T02:53:49;96180.38;;;21.31;30.57
56600;BME280;51832;48.152;11.530;2023-10-08T02:58:50;96167.47;;;21.43;30.17
56600;BME280;51832;48.152;11.530;2023-10-08T03:03:51;96162.66;;;21.35;30.38
56600;BME280;51832;48.152;11.530;2023-10-08T03:09:02;96155.69;;;21.34;30.39
56600;BME280;51832;48.152;11.530;2023-10-08T03:14:06;96166.63;;;21.47;30.27
56600;BME280;51832;48.152;11.530;2023-10-08T03:19:15;96152.75;;;21.40;30.21
56600;BME280;51832;48.152;11.530;2023-10-08T03:24:18;96162.63;;;21.50;29.89
56600;BME280;51832;48.152;11.530;2023-10-08T03:29:38;96144.19;;;21.38;30.26
56600;BME280;51832;48.152;11.530;2023-10-08T03:34:48;96157.78;;;21.52;30.04
56600;BME280;51832;48.152;11.530;2023-10-08T03:39:50;96146.88;;;21.38;30.18
56600;BME280;51832;48.152;11.530;2023-10-08T03:45:23;96152.44;;;21.52;29.96
56600;BME280;51832;48.152;11.530;2023-10-08T03:50:41;96158.59;;;21.57;29.81
56600;BME280;51832;48.152;11.530;2023-10-08T03:55:43;96146.53;;;21.55;29.81
56600;BME280;51832;48.152;11.530;2023-10-08T04:00:43;96142.41;;;21.78;29.62
56600;BME280;51832;48.152;11.530;2023-10-08T04:05:46;96147.34;;;21.55;29.89
56600;BME280;51832;48.152;11.530;2023-10-08T04:11:15;96152.34;;;21.77;29.67
56600;BME280;51832;48.152;11.530;2023-10-08T04:16:33;96151.59;;;21.61;29.96
56600;BME280;51832;48.152;11.530;2023-10-08T04:21:38;96157.25;;;21.50;30.29
56600;BME280;51832;48.152;11.530;2023-10-08T04:26:41;96152.00;;;21.30;30.59
56600;BME280;51832;48.152;11.530;2023-10-08T04:31:42;96154.34;;;21.41;30.37
56600;BME280;51832;48.152;11.530;2023-10-08T04:36:46;96148.50;;;21.24;30.95
56600;BME280;51832;48.152;11.530;2023-10-08T04:41:48;96144.94;;;21.49;30.50
56600;BME280;51832;48.152;11.530;2023-10-08T04:46:52;96136.16;;;21.43;30.59
56600;BME280;51832;48.152;11.530;2023-10-08T04:51:59;96146.34;;;21.36;30.63
56600;BME280;51832;48.152;11.530;2023-10-08T04:57:00;96146.56;;;21.50;30.51
56600;BME280;51832;48.152;11.530;2023-10-08T05:02:03;96153.28;;;21.42;30.39
56600;BME280;51832;48.152;11.530;2023-10-08T05:07:13;96155.69;;;21.39;30.39
56600;BME280;51832;48.152;11.530;2023-10-08T05:12:32;96158.09;;;21.45;30.22
56600;BME280;51832;48.152;11.530;2023-10-08T05:17:38;96170.44;;;21.36;30.67
56600;BME280;51832;48.152;11.530;2023-10-08T05:22:51;96169.88;;;21.39;30.75
56600;BME280;51832;48.152;11.530;2023-10-08T05:28:20;96179.53;;;21.45;30.35
56600;BME280;51832;48.152;11.530;2023-10-08T05:33:24;96195.41;;;21.91;29.60
56600;BME280;51832;48.152;11.530;2023-10-08T05:38:25;96202.06;;;22.04;29.99
56600;BME280;51832;48.152;11.530;2023-10-08T05:43:37;96218.03;;;21.54;31.40
56600;BME280;51832;48.152;11.530;2023-10-08T05:48:40;96215.97;;;21.21;31.84
56600;BME280;51832;48.152;11.530;2023-10-08T05:53:45;96241.09;;;21.05;32.04
56600;BME280;51832;48.152;11.530;2023-10-08T05:58:49;96246.44;;;20.94;31.81
56600;BME280;51832;48.152;11.530;2023-10-08T06:04:09;96264.38;;;20.74;32.07
56600;BME280;51832;48.152;11.530;2023-10-08T06:09:42;96283.13;;;21.19;31.83
56600;BME280;51832;48.152;11.530;2023-10-08T06:14:52;96270.47;;;20.44;33.24
56600;BME280;51832;48.152;11.530;2023-10-08T06:20:07;96264.06;;;20.45;33.69
56600;BME280;51832;48.152;11.530;2023-10-08T06:25:11;96277.75;;;20.64;33.58
56600;BME280;51832;48.152;11.530;2023-10-08T06:30:18;96286.81;;;20.57;34.04
56600;BME280;51832;48.152;11.530;2023-10-08T06:35:19;96281.25;;;20.02;34.89
56600;BME280;51832;48.152;11.530;2023-10-08T06:40:21;96273.56;;;20.26;35.23
56600;BME280;51832;48.152;11.530;2023-10-08T06:45:41;96266.69;;;20.35;35.43
56600;BME280;51832;48.152;11.530;2023-10-08T06:50:44;96264.34;;;20.48;35.30
56600;BME280;51832;48.152;11.530;2023-10-08T06:55:45;96270.19;;;20.40;35.39
56600;BME280;51832;48.152;11.530;2023-10-08T07:00:48;96274.78;;;20.65;35.07
56600;BME280;51832;48.152;11.530;2023-10-08T07:05:50;96278.00;;;20.67;35.44
56600;BME280;51832;48.152;11.530;2023-10-08T07:11:02;96275.63;;;20.86;35.31
56600;BME280;51832;48.152;11.530;2023-10-08T07:16:07;96277.22;;;20.82;35.35
56600;BME280;51832;48.152;11.530;2023-10-08T07:21:11;96286.06;;;20.98;35.40
56600;BME280;51832;48.152;11.530;2023-10-08T07:26:14;96272.69;;;21.18;35.37
56600;BME280;51832;48.152;11.530;2023-10-08T07:31:23;96273.50;;;21.28;34.97
56600;BME280;51832;48.152;11.530;2023-10-08T07:36:24;96275.91;;;21.25;35.62
56600;BME280;51832;48.152;11.530;2023-10-08T07:41:26;96280.16;;;21.46;35.31
56600;BME280;51832;48.152;11.530;2023-10-08T07:46:27;96261.16;;;21.48;35.73
56600;BME280;51832;48.152;11.530;2023-10-08T07:51:28;96267.88;;;21.40;35.92
56600;BME280;51832;48.152;11.530;2023-10-08T07:56:28;96276.97;;;21.54;36.07
56600;BME280;51832;48.152;11.530;2023-10-08T08:01:30;96284.75;;;21.41;36.43
56600;BME280;51832;48.152;11.530;2023-10-08T08:06:34;96285.56;;;21.41;36.83
56600;BME280;51832;48.152;11.530;2023-10-08T08:11:34;96277.50;;;21.56;36.69
56600;BME280;51832;48.152;11.530;2023-10-08T08:16:37;96283.91;;;21.60;36.83
56600;BME280;51832;48.152;11.530;2023-10-08T08:21:38;96272.63;;;21.74;36.96
56600;BME280;51832;48.152;11.530;2023-10-08T08:26:38;96290.09;;;21.56;37.08
56600;BME280;51832;48.152;11.530;2023-10-08T08:32:01;96281.94;;;21.91;37.18
56600;BME280;51832;48.152;11.530;2023-10-08T08:37:04;96289.97;;;22.07;37.10
56600;BME280;51832;48.152;11.530;2023-10-08T08:42:04;96296.94;;;22.08;37.39
56600;BME280;51832;48.152;11.530;2023-10-08T08:47:06;96303.91;;;21.88;37.95
56600;BME280;51832;48.152;11.530;2023-10-08T08:52:07;96293.88;;;22.29;37.79
56600;BME280;51832;48.152;11.530;2023-10-08T08:57:10;96283.84;;;21.86;38.81
56600;BME280;51832;48.152;11.530;2023-10-08T09:02:14;96275.22;;;22.04;38.77
56600;BME280;51832;48.152;11.530;2023-10-08T09:07:20;96279.53;;;22.05;38.69
56600;BME280;51832;48.152;11.530;2023-10-08T09:12:21;96262.00;;;22.28;38.31
56600;BME280;51832;48.152;11.530;2023-10-08T09:17:22;96275.41;;;22.28;38.46
56600;BME280;51832;48.152;11.530;2023-10-08T09:22:23;96282.25;;;22.54;37.96
56600;BME280;51832;48.152;11.530;2023-10-08T09:27:26;96292.19;;;22.49;38.50
56600;BME280;51832;48.152;11.530;2023-10-08T09:32:30;96316.53;;;22.62;38.42
56600;BME280;51832;48.152;11.530;2023-10-08T09:37:30;96317.34;;;22.58;38.03
56600;BME280;51832;48.152;11.530;2023-10-08T09:42:31;96328.47;;;22.90;37.88
56600;BME280;51832;48.152;11.530;2023-10-08T09:47:36;96327.34;;;22.96;37.75
56600;BME280;51832;48.152;11.530;2023-10-08T09:57:57;96347.66;;;23.81;37.41
56600;BME280;51832;48.152;11.530;2023-10-08T10:02:59;96346.28;;;23.83;37.81
56600;BME280;51832;48.152;11.530;2023-10-08T10:08:05;96355.16;;;23.84;37.75
56600;BME280;51832;48.152;11.530;2023-10-08T10:13:06;96366.00;;;23.73;38.22
56600;BME280;51832;48.152;11.530;2023-10-08T10:18:13;96358.13;;;23.48;38.11
56600;BME280;51832;48.152;11.530;2023-10-08T10:23:40;96364.16;;;23.35;38.74
56600;BME280;51832;48.152;11.530;2023-10-08T10:28:40;96376.19;;;22.98;40.19
56600;BME280;51832;48.152;11.530;2023-10-08T10:33:41;96370.25;;;23.07;40.01
56600;BME280;51832;48.152;11.530;2023-10-08T10:38:42;96375.44;;;22.88;41.00
56600;BME280;51832;48.152;11.530;2023-10-08T10:43:43;96363.69;;;22.79;41.70
56600;BME280;51832;48.152;11.530;2023-10-08T10:48:52;96365.88;;;22.66;41.46
56600;BME280;51832;48.152;11.530;2023-10-08T10:54:17;96364.34;;;22.45;41.76
56600;BME280;51832;48.152;11.530;2023-10-08T10:59:23;96351.41;;;22.62;42.04
56600;BME280;51832;48.152;11.530;2023-10-08T11:04:27;96353.69;;;22.94;41.63
56600;BME280;51832;48.152;11.530;2023-10-08T11:09:31;96341.69;;;22.72;42.24
56600;BME280;51832;48.152;11.530;2023-10-08T11:14:47;96335.78;;;22.75;41.94
56600;BME280;51832;48.152;11.530;2023-10-08T11:19:47;96332.25;;;22.84;42.13
56600;BME280;51832;48.152;11.530;2023-10-08T11:24:48;96338.13;;;22.91;42.12
56600;BME280;51832;48.152;11.530;2023-10-08T11:29:55;96347.19;;;23.00;42.31
56600;BME280;51832;48.152;11.530;2023-10-08T11:35:00;96329.31;;;22.86;42.68
56600;BME280;51832;48.152;11.530;2023-10-08T11:40:03;96330.56;;;22.98;42.59
56600;BME280;51832;48.152;11.530;2023-10-08T11:45:17;96321.97;;;23.01;43.10
56600;BME280;51832;48.152;11.530;2023-10-08T11:50:18;96328.31;;;22.66;43.55
56600;BME280;51832;48.152;11.530;2023-10-08T11:55:21;96333.66;;;23.16;43.43
56600;BME280;51832;48.152;11.530;2023-10-08T12:00:21;96325.50;;;23.31;42.33
56600;BME280;51832;48.152;11.530;2023-10-08T12:05:25;96311.34;;;23.20;42.62
56600;BME280;51832;48.152;11.530;2023-10-08T12:10:25;96318.84;;;23.23;42.67
56600;BME280;51832;48.152;11.530;2023-10-08T12:15:26;96312.19;;;23.16;42.59
56600;BME280;51832;48.152;11.530;2023-10-08T12:20:38;96317.72;;;22.95;42.50
56600;BME280;51832;48.152;11.530;2023-10-08T12:25:39;96320.97;;;22.87;42.50
56600;BME280;51832;48.152;11.530;2023-10-08T12:30:39;96306.81;;;22.82;42.87
56600;BME280;51832;48.152;11.530;2023-10-08T12:35:43;96320.81;;;22.63;43.30
56600;BME280;51832;48.152;11.530;2023-10-08T12:40:44;96328.28;;;22.82;43.09
56600;BME280;51832;48.152;11.530;2023-10-08T12:45:48;96333.31;;;22.88;42.95
56600;BME280;51832;48.152;11.530;2023-10-08T12:50:56;96323.59;;;22.97;42.83
56600;BME280;51832;48.152;11.530;2023-10-08T12:55:57;96313.94;;;22.96;43.15
56600;BME280;51832;48.152;11.530;2023-10-08T13:00:58;96282.75;;;22.56;43.88
56600;BME280;51832;48.152;11.530;2023-10-08T13:06:01;96284.47;;;22.86;43.18
56600;BME280;51832;48.152;11.530;2023-10-08T13:11:05;96272.47;;;22.74;43.14
56600;BME280;51832;48.152;11.530;2023-10-08T13:16:05;96286.75;;;22.64;43.50
56600;BME280;51832;48.152;11.530;2023-10-08T13:21:07;96294.69;;;22.84;42.97
56600;BME280;51832;48.152;11.530;2023-10-08T13:26:09;96288.56;;;23.18;42.14
56600;BME280;51832;48.152;11.530;2023-10-08T13:31:17;96274.50;;;23.26;42.64
56600;BME280;51832;48.152;11.530;2023-10-08T13:36:19;96283.72;;;23.15;42.45
56600;BME280;51832;48.152;11.530;2023-10-08T13:41:19;96284.69;;;23.29;42.33
56600;BME280;51832;48.152;11.530;2023-10-08T13:46:20;96304.25;;;23.68;41.63
56600;BME280;51832;48.152;11.530;2023-10-08T13:51:25;96312.31;;;23.92;41.57
56600;BME280;51832;48.152;11.530;2023-10-08T13:56:27;96309.47;;;23.84;42.15
56600;BME280;51832;48.152;11.530;2023-10-08T14:01:27;96318.69;;;23.44;43.00
56600;BME280;51832;48.152;11.530;2023-10-08T14:06:28;96313.25;;;23.54;43.40
56600;BME280;51832;48.152;11.530;2023-10-08T14:11:30;96313.00;;;23.50;43.54
56600;BME280;51832;48.152;11.530;2023-10-08T14:16:30;96304.31;;;23.63;43.45
56600;BME280;51832;48.152;11.530;2023-10-08T14:21:32;96305.38;;;23.62;43.08
56600;BME280;51832;48.152;11.530;2023-10-08T14:26:38;96298.88;;;23.68;43.40
56600;BME280;51832;48.152;11.530;2023-10-08T14:31:39;96297.56;;;24.14;42.41
56600;BME280;51832;48.152;11.530;2023-10-08T14:36:39;96293.09;;;23.80;43.53
56600;BME280;51832;48.152;11.530;2023-10-08T14:41:58;96290.25;;;23.71;43.99
56600;BME280;51832;48.152;11.530;2023-10-08T14:47:18;96288.28;;;23.48;44.48
56600;BME280;51832;48.152;11.530;2023-10-08T14:52:18;96289.63;;;23.51;44.60
56600;BME280;51832;48.152;11.530;2023-10-08T14:57:18;96298.16;;;23.58;44.46
56600;BME280;51832;48.152;11.530;2023-10-08T15:02:19;96295.88;;;23.41;45.05
56600;BME280;51832;48.152;11.530;2023-10-08T15:07:19;96296.94;;;23.40;45.26
56600;BME280;51832;48.152;11.530;2023-10-08T15:12:20;96297.91;;;23.54;44.92
56600;BME280;51832;48.152;11.530;2023-10-08T15:17:22;96297.03;;;23.64;44.94
56600;BME280;51832;48.152;11.530;2023-10-08T15:22:22;96301.13;;;23.56;45.52
56600;BME280;51832;48.152;11.530;2023-10-08T15:27:23;96306.38;;;23.71;45.02
56600;BME280;51832;48.152;11.530;2023-10-08T15:32:23;96306.66;;;23.70;45.22
56600;BME280;51832;48.152;11.530;2023-10-08T15:37:25;96312.84;;;23.65;45.66
56600;BME280;51832;48.152;11.530;2023-10-08T15:42:26;96309.69;;;23.63;46.04
56600;BME280;51832;48.152;11.530;2023-10-08T15:47:27;96307.78;;;23.64;46.42
56600;BME280;51832;48.152;11.530;2023-10-08T15:52:27;96310.75;;;23.62;46.70
56600;BME280;51832;48.152;11.530;2023-10-08T15:57:27;96305.16;;;23.59;46.84
56600;BME280;51832;48.152;11.530;2023-10-08T16:02:28;96302.38;;;23.35;47.28
56600;BME280;51832;48.152;11.530;2023-10-08T16:07:28;96304.53;;;23.33;47.45
56600;BME280;51832;48.152;11.530;2023-10-08T16:12:30;96306.06;;;23.44;47.17
56600;BME280;51832;48.152;11.530;2023-10-08T16:17:30;96304.63;;;23.23;47.77
56600;BME280;51832;48.152;11.530;2023-10-08T16:22:31;96305.91;;;23.30;47.82
56600;BME280;51832;48.152;11.530;2023-10-08T16:27:31;96310.31;;;23.16;48.15
56600;BME280;51832;48.152;11.530;2023-10-08T16:32:34;96312.16;;;23.21;48.32
56600;BME280;51832;48.152;11.530;2023-10-08T16:37:36;96302.88;;;23.08;48.41
56600;BME280;51832;48.152;11.530;2023-10-08T16:42:38;96313.72;;;22.88;49.21
56600;BME280;51832;48.152;11.530;2023-10-08T16:47:38;96316.50;;;23.12;48.63
56600;BME280;51832;48.152;11.530;2023-10-08T16:52:38;96317.75;;;22.90;49.17
56600;BME280;51832;48.152;11.530;2023-10-08T16:57:39;96321.50;;;22.89;48.78
56600;BME280;51832;48.152;11.530;2023-10-08T17:02:40;96319.13;;;22.83;48.73
56600;BME280;51832;48.152;11.530;2023-10-08T17:07:41;96330.84;;;22.97;48.61
56600;BME280;51832;48.152;11.530;2023-10-08T17:12:42;96339.75;;;22.92;48.94
56600;BME280;51832;48.152;11.530;2023-10-08T17:17:42;96329.31;;;22.86;49.08
56600;BME280;51832;48.152;11.530;2023-10-08T17:22:46;96328.53;;;22.75;49.38
56600;BME280;51832;48.152;11.530;2023-10-08T17:27:46;96324.66;;;22.47;50.08
56600;BME280;51832;48.152;11.530;2023-10-08T17:32:48;96331.41;;;22.40;50.63
56600;BME280;51832;48.152;11.530;2023-10-08T17:37:49;96330.75;;;22.58;50.49
56600;BME280;51832;48.152;11.530;2023-10-08T17:42:50;96320.91;;;22.48;51.00
56600;BME280;51832;48.152;11.530;2023-10-08T17:47:51;96315.72;;;22.62;50.73
56600;BME280;51832;48.152;11.530;2023-10-08T17:52:55;96314.78;;;22.38;51.54
56600;BME280;51832;48.152;11.530;2023-10-08T17:57:56;96306.94;;;22.51;51.67
56600;BME280;51832;48.152;11.530;2023-10-08T18:02:59;96312.91;;;22.33;52.01
56600;BME280;51832;48.152;11.530;2023-10-08T18:07:59;96306.31;;;22.10;52.50
56600;BME280;51832;48.152;11.530;2023-10-08T18:13:00;96318.47;;;22.52;51.40
56600;BME280;51832;48.152;11.530;2023-10-08T18:18:00;96310.22;;;22.33;51.91
56600;BME280;51832;48.152;11.530;2023-10-08T18:23:02;96308.94;;;22.20;52.25
56600;BME280;51832;48.152;11.530;2023-10-08T18:28:03;96309.16;;;22.34;52.28
56600;BME280;51832;48.152;11.530;2023-10-08T18:33:04;96298.16;;;22.41;52.53
56600;BME280;51832;48.152;11.530;2023-10-08T18:38:05;96289.38;;;22.20;53.03
56600;BME280;51832;48.152;11.530;2023-10-08T18:43:06;96277.72;;;22.50;52.59
56600;BME280;51832;48.152;11.530;2023-10-08T18:48:08;96268.19;;;22.23;53.16
56600;BME280;51832;48.152;11.530;2023-10-08T18:53:09;96254.88;;;22.03;54.27
56600;BME280;51832;48.152;11.530;2023-10-08T18:58:10;96261.59;;;21.95;54.91
56600;BME280;51832;48.152;11.530;2023-10-08T19:03:11;96270.69;;;22.05;55.17
56600;BME280;51832;48.152;11.530;2023-10-08T19:08:11;96255.25;;;22.41;54.21
56600;BME280;51832;48.152;11.530;2023-10-08T19:13:12;96285.03;;;22.29;54.64
56600;BME280;51832;48.152;11.530;2023-10-08T19:18:12;96299.78;;;22.31;54.71
56600;BME280;51832;48.152;11.530;2023-10-08T19:23:15;96285.75;;;22.55;53.98
56600;BME280;51832;48.152;11.530;2023-10-08T19:28:16;96291.19;;;22.84;53.46
56600;BME280;51832;48.152;11.530;2023-10-08T19:33:20;96296.56;;;22.29;54.87
56600;BME280;51832;48.152;11.530;2023-10-08T19:38:21;96304.13;;;22.22;55.12
56600;BME280;51832;48.152;11.530;2023-10-08T19:43:22;96318.16;;;22.58;55.13
56600;BME280;51832;48.152;11.530;2023-10-08T19:48:22;96306.03;;;22.12;56.10
56600;BME280;51832;48.152;11.530;2023-10-08T19:53:23;96305.50;;;22.10;57.33
56600;BME280;51832;48.152;11.530;2023-10-08T19:58:24;96311.59;;;22.30;57.49
56600;BME280;51832;48.152;11.530;2023-10-08T20:03:25;96304.72;;;22.04;57.77
56600;BME280;51832;48.152;11.530;2023-10-08T20:08:27;96311.63;;;22.20;58.10
56600;BME280;51832;48.152;11.530;2023-10-08T20:13:27;96309.16;;;22.29;56.01
56600;BME280;51832;48.152;11.530;2023-10-08T20:18:28;96302.66;;;22.45;55.86
56600;BME280;51832;48.152;11.530;2023-10-08T20:23:28;96311.34;;;22.22;56.82
56600;BME280;51832;48.152;11.530;2023-10-08T20:28:34;96303.13;;;21.93;57.40
56600;BME280;51832;48.152;11.530;2023-10-08T20:33:35;96299.41;;;21.84;57.85
56600;BME280;51832;48.152;11.530;2023-10-08T20:38:35;96288.69;;;21.79;58.44
56600;BME280;51832;48.152;11.530;2023-10-08T20:43:36;96273.09;;;22.06;57.71
56600;BME280;51832;48.152;11.530;2023-10-08T20:48:36;96291.06;;;21.95;59.46
56600;BME280;51832;48.152;11.530;2023-10-08T20:53:38;96272.41;;;21.55;61.45
56600;BME280;51832;48.152;11.530;2023-10-08T20:58:38;96284.75;;;21.36;61.32
56600;BME280;51832;48.152;11.530;2023-10-08T21:03:39;96268.97;;;21.29;62.61
56600;BME280;51832;48.152;11.530;2023-10-08T21:08:39;96266.53;;;21.33;61.61
56600;BME280;51832;48.152;11.530;2023-10-08T21:13:40;96267.88;;;21.20;62.46
56600;BME280;51832;48.152;11.530;2023-10-08T21:18:41;96263.06;;;21.32;61.25
56600;BME280;51832;48.152;11.530;2023-10-08T21:23:43;96249.94;;;21.36;61.52
56600;BME280;51832;48.152;11.530;2023-10-08T21:28:44;96244.06;;;21.23;62.45
56600;BME280;51832;48.152;11.530;2023-10-08T21:33:45;96243.25;;;20.92;64.00
56600;BME280;51832;48.152;11.530;2023-10-08T21:38:45;96244.88;;;21.04;63.65
56600;BME280;51832;48.152;11.530;2023-10-08T21:43:45;96228.00;;;21.03;63.66
56600;BME280;51832;48.152;11.530;2023-10-08T21:48:46;96215.41;;;21.39;62.11
56600;BME280;51832;48.152;11.530;2023-10-08T21:53:46;96207.63;;;21.38;61.79
56600;BME280;51832;48.152;11.530;2023-10-08T21:58:47;96213.81;;;21.03;63.21
56600;BME280;51832;48.152;11.530;2023-10-08T22:03:50;96214.59;;;21.39;61.88
56600;BME280;51832;48.152;11.530;2023-10-08T22:08:51;96213.53;;;21.19;61.29
56600;BME280;51832;48.152;11.530;2023-10-08T22:13:51;96211.91;;;21.18;61.20
56600;BME280;51832;48.152;11.530;2023-10-08T22:18:52;96211.41;;;21.01;60.87
56600;BME280;51832;48.152;11.530;2023-10-08T22:23:56;96206.59;;;21.03;61.34
56600;BME280;51832;48.152;11.530;2023-10-08T22:28:59;96200.19;;;20.69;62.76
56600;BME280;51832;48.152;11.530;2023-10-08T22:34:01;96200.44;;;20.87;62.25
56600;BME280;51832;48.152;11.530;2023-10-08T22:39:15;96212.75;;;20.73;62.30
56600;BME280;51832;48.152;11.530;2023-10-08T22:44:24;96212.75;;;20.88;61.61
56600;BME280;51832;48.152;11.530;2023-10-08T22:49:26;96208.22;;;20.89;62.21
56600;BME280;51832;48.152;11.530;2023-10-08T22:54:26;96199.91;;;20.85;62.41
56600;BME280;51832;48.152;11.530;2023-10-08T22:59:27;96189.50;;;20.74;63.02
56600;BME280;51832;48.152;11.530;2023-10-08T23:04:30;96187.09;;;20.77;64.30
56600;BME280;51832;48.152;11.530;2023-10-08T23:09:30;96179.84;;;20.68;65.16
56600;BME280;51832;48.152;11.530;2023-10-08T23:14:32;96175.84;;;20.45;66.34
56600;BME280;51832;48.152;11.530;2023-10-08T23:19:32;96178.50;;;20.45;65.26
56600;BME280;51832;48.152;11.530;2023-10-08T23:24:33;96173.13;;;20.35;65.07
56600;BME280;51832;48.152;11.530;2023-10-08T23:29:34;96170.47;;;20.40;65.40
56600;BME280;51832;48.152;11.530;2023-10-08T23:34:34;96165.16;;;20.45;64.56
56600;BME280;51832;48.152;11.530;2023-10-08T23:39:35;96169.41;;;20.36;64.17
56600;BME280;51832;48.152;11.530;2023-10-08T23:44:38;96168.06;;;20.38;63.49
56600;BME280;51832;48.152;11.530;2023-10-08T23:49:41;96160.31;;;20.52;62.54
56600;BME280;51832;48.152;11.530;2023-10-08T23:54:53;96153.38;;;20.36;63.37
56600;BME280;51832;48.152;11.530;2023-10-08T23:59:57;96156.34;;;20.49;63.04
